sensor_id;sensor_type;location;lat;lon;timestamp;P1;durP1;ratioP1;P2;durP2;ratioP2
31770;SDS011;18343;50.152;8.182;2022-07-25T00:00:22;10.27;;;6.40;;
31770;SDS011;18343;50.152;8.182;2022-07-25T00:02:50;12.63;;;7.15;;
31770;SDS011;18343;50.152;8.182;2022-07-25T00:05:17;10.35;;;6.22;;
31770;SDS011;18343;50.152;8.182;2022-07-25T00:07:44;9.75;;;7.20;;
31770;SDS011;18343;50.152;8.182;2022-07-25T00:10:12;9.30;;;6.35;;
31770;SDS011;18343;50.152;8.182;2022-07-25T00:12:40;7.57;;;6.60;;
31770;SDS011;18343;50.152;8.182;2022-07-25T00:15:08;9.85;;;6.43;;
31770;SDS011;18343;50.152;8.182;2022-07-25T00:17:36;7.20;;;6.50;;
31770;SDS011;18343;50.152;8.182;2022-07-25T00:20:04;8.10;;;6.88;;
31770;SDS011;18343;50.152;8.182;2022-07-25T00:22:34;12.07;;;6.93;;
31770;SDS011;18343;50.152;8.182;2022-07-25T00:25:01;9.50;;;6.80;;
31770;SDS011;18343;50.152;8.182;2022-07-25T00:27:30;8.20;;;6.97;;
31770;SDS011;18343;50.152;8.182;2022-07-25T00:29:57;7.72;;;6.70;;
31770;SDS011;18343;50.152;8.182;2022-07-25T00:32:24;9.70;;;6.95;;
31770;SDS011;18343;50.152;8.182;2022-07-25T00:34:51;8.73;;;7.00;;
31770;SDS011;18343;50.152;8.182;2022-07-25T00:37:18;8.57;;;6.85;;
31770;SDS011;18343;50.152;8.182;2022-07-25T00:39:46;10.95;;;6.53;;
31770;SDS011;18343;50.152;8.182;2022-07-25T00:42:13;11.32;;;6.97;;
31770;SDS011;18343;50.152;8.182;2022-07-25T00:44:41;11.73;;;7.07;;
31770;SDS011;18343;50.152;8.182;2022-07-25T00:47:08;9.10;;;6.82;;
31770;SDS011;18343;50.152;8.182;2022-07-25T00:49:36;8.32;;;6.70;;
31770;SDS011;18343;50.152;8.182;2022-07-25T00:52:03;10.13;;;7.15;;
31770;SDS011;18343;50.152;8.182;2022-07-25T00:54:31;7.00;;;6.15;;
31770;SDS011;18343;50.152;8.182;2022-07-25T00:56:59;14.50;;;6.38;;
31770;SDS011;18343;50.152;8.182;2022-07-25T00:59:26;8.10;;;6.60;;
31770;SDS011;18343;50.152;8.182;2022-07-25T01:01:55;10.35;;;6.78;;
31770;SDS011;18343;50.152;8.182;2022-07-25T01:04:22;9.38;;;7.22;;
31770;SDS011;18343;50.152;8.182;2022-07-25T01:06:49;8.88;;;6.90;;
31770;SDS011;18343;50.152;8.182;2022-07-25T01:09:17;8.57;;;6.60;;
31770;SDS011;18343;50.152;8.182;2022-07-25T01:11:45;7.80;;;6.75;;
31770;SDS011;18343;50.152;8.182;2022-07-25T01:14:12;8.23;;;6.95;;
31770;SDS011;18343;50.152;8.182;2022-07-25T01:16:40;8.68;;;6.68;;
31770;SDS011;18343;50.152;8.182;2022-07-25T01:19:08;12.38;;;6.88;;
31770;SDS011;18343;50.152;8.182;2022-07-25T01:21:38;8.77;;;6.70;;
31770;SDS011;18343;50.152;8.182;2022-07-25T01:24:06;12.07;;;7.90;;
31770;SDS011;18343;50.152;8.182;2022-07-25T01:26:35;10.55;;;6.88;;
31770;SDS011;18343;50.152;8.182;2022-07-25T01:29:02;8.52;;;6.60;;
31770;SDS011;18343;50.152;8.182;2022-07-25T01:31:30;7.22;;;6.53;;
31770;SDS011;18343;50.152;8.182;2022-07-25T01:33:57;10.30;;;6.32;;
31770;SDS011;18343;50.152;8.182;2022-07-25T01:36:25;12.00;;;7.07;;
31770;SDS011;18343;50.152;8.182;2022-07-25T01:38:53;7.50;;;6.70;;
31770;SDS011;18343;50.152;8.182;2022-07-25T01:41:20;7.72;;;6.90;;
31770;SDS011;18343;50.152;8.182;2022-07-25T01:43:48;8.93;;;6.47;;
31770;SDS011;18343;50.152;8.182;2022-07-25T01:46:15;8.25;;;6.90;;
31770;SDS011;18343;50.152;8.182;2022-07-25T01:48:42;7.25;;;6.55;;
31770;SDS011;18343;50.152;8.182;2022-07-25T01:51:09;11.93;;;7.20;;
31770;SDS011;18343;50.152;8.182;2022-07-25T01:53:37;7.40;;;6.28;;
31770;SDS011;18343;50.152;8.182;2022-07-25T01:56:06;13.52;;;7.07;;
31770;SDS011;18343;50.152;8.182;2022-07-25T01:58:33;9.32;;;6.85;;
31770;SDS011;18343;50.152;8.182;2022-07-25T02:01:00;7.50;;;6.72;;
31770;SDS011;18343;50.152;8.182;2022-07-25T02:03:28;10.02;;;6.68;;
31770;SDS011;18343;50.152;8.182;2022-07-25T02:05:55;8.60;;;7.07;;
31770;SDS011;18343;50.152;8.182;2022-07-25T02:08:22;10.73;;;6.97;;
31770;SDS011;18343;50.152;8.182;2022-07-25T02:10:50;11.20;;;7.20;;
31770;SDS011;18343;50.152;8.182;2022-07-25T02:13:18;8.05;;;6.15;;
31770;SDS011;18343;50.152;8.182;2022-07-25T02:15:46;8.43;;;7.10;;
31770;SDS011;18343;50.152;8.182;2022-07-25T02:18:13;11.40;;;7.22;;
31770;SDS011;18343;50.152;8.182;2022-07-25T02:20:40;6.95;;;6.25;;
31770;SDS011;18343;50.152;8.182;2022-07-25T02:23:08;13.40;;;7.25;;
31770;SDS011;18343;50.152;8.182;2022-07-25T02:25:35;8.75;;;6.68;;
31770;SDS011;18343;50.152;8.182;2022-07-25T02:28:06;7.45;;;6.68;;
31770;SDS011;18343;50.152;8.182;2022-07-25T02:30:34;9.77;;;6.80;;
31770;SDS011;18343;50.152;8.182;2022-07-25T02:33:02;7.65;;;6.85;;
31770;SDS011;18343;50.152;8.182;2022-07-25T02:35:29;7.75;;;6.70;;
31770;SDS011;18343;50.152;8.182;2022-07-25T02:37:56;12.98;;;7.15;;
31770;SDS011;18343;50.152;8.182;2022-07-25T02:40:23;10.00;;;7.45;;
31770;SDS011;18343;50.152;8.182;2022-07-25T02:42:51;9.13;;;6.45;;
31770;SDS011;18343;50.152;8.182;2022-07-25T02:45:18;7.47;;;6.57;;
31770;SDS011;18343;50.152;8.182;2022-07-25T02:47:47;10.52;;;7.93;;
31770;SDS011;18343;50.152;8.182;2022-07-25T02:50:14;9.75;;;6.90;;
31770;SDS011;18343;50.152;8.182;2022-07-25T02:52:41;6.90;;;6.20;;
31770;SDS011;18343;50.152;8.182;2022-07-25T02:55:09;9.85;;;7.10;;
31770;SDS011;18343;50.152;8.182;2022-07-25T02:57:37;7.63;;;6.80;;
31770;SDS011;18343;50.152;8.182;2022-07-25T03:00:05;9.57;;;7.15;;
31770;SDS011;18343;50.152;8.182;2022-07-25T03:02:33;9.32;;;7.07;;
31770;SDS011;18343;50.152;8.182;2022-07-25T03:05:04;8.98;;;6.72;;
31770;SDS011;18343;50.152;8.182;2022-07-25T03:07:33;7.95;;;6.70;;
31770;SDS011;18343;50.152;8.182;2022-07-25T03:10:00;9.68;;;6.82;;
31770;SDS011;18343;50.152;8.182;2022-07-25T03:12:29;8.82;;;6.60;;
31770;SDS011;18343;50.152;8.182;2022-07-25T03:14:57;7.75;;;6.78;;
31770;SDS011;18343;50.152;8.182;2022-07-25T03:17:24;10.50;;;7.03;;
31770;SDS011;18343;50.152;8.182;2022-07-25T03:19:52;8.63;;;6.97;;
31770;SDS011;18343;50.152;8.182;2022-07-25T03:22:21;9.68;;;7.03;;
31770;SDS011;18343;50.152;8.182;2022-07-25T03:24:48;9.38;;;6.75;;
31770;SDS011;18343;50.152;8.182;2022-07-25T03:27:15;10.15;;;6.63;;
31770;SDS011;18343;50.152;8.182;2022-07-25T03:29:43;10.35;;;6.45;;
31770;SDS011;18343;50.152;8.182;2022-07-25T03:32:10;7.60;;;6.80;;
31770;SDS011;18343;50.152;8.182;2022-07-25T03:34:37;8.80;;;6.78;;
31770;SDS011;18343;50.152;8.182;2022-07-25T03:37:05;9.82;;;6.68;;
31770;SDS011;18343;50.152;8.182;2022-07-25T03:39:33;10.27;;;7.18;;
31770;SDS011;18343;50.152;8.182;2022-07-25T03:42:00;11.77;;;7.18;;
31770;SDS011;18343;50.152;8.182;2022-07-25T03:44:28;8.38;;;6.85;;
31770;SDS011;18343;50.152;8.182;2022-07-25T03:46:55;10.32;;;6.53;;
31770;SDS011;18343;50.152;8.182;2022-07-25T03:49:22;8.85;;;6.65;;
31770;SDS011;18343;50.152;8.182;2022-07-25T03:51:49;10.30;;;7.50;;
31770;SDS011;18343;50.152;8.182;2022-07-25T03:54:16;8.00;;;6.88;;
31770;SDS011;18343;50.152;8.182;2022-07-25T03:56:46;8.32;;;6.50;;
31770;SDS011;18343;50.152;8.182;2022-07-25T03:59:15;11.40;;;7.03;;
31770;SDS011;18343;50.152;8.182;2022-07-25T04:01:44;7.40;;;6.38;;
31770;SDS011;18343;50.152;8.182;2022-07-25T04:04:13;7.95;;;7.10;;
31770;SDS011;18343;50.152;8.182;2022-07-25T04:06:41;8.75;;;6.28;;
31770;SDS011;18343;50.152;8.182;2022-07-25T04:09:09;7.18;;;6.43;;
31770;SDS011;18343;50.152;8.182;2022-07-25T04:11:37;8.40;;;6.38;;
31770;SDS011;18343;50.152;8.182;2022-07-25T04:14:06;10.80;;;6.60;;
31770;SDS011;18343;50.152;8.182;2022-07-25T04:16:33;8.52;;;6.90;;
31770;SDS011;18343;50.152;8.182;2022-07-25T04:19:00;8.82;;;6.80;;
31770;SDS011;18343;50.152;8.182;2022-07-25T04:21:28;9.85;;;7.00;;
31770;SDS011;18343;50.152;8.182;2022-07-25T04:23:55;9.02;;;6.68;;
31770;SDS011;18343;50.152;8.182;2022-07-25T04:26:23;15.52;;;6.93;;
31770;SDS011;18343;50.152;8.182;2022-07-25T04:28:50;9.18;;;7.07;;
31770;SDS011;18343;50.152;8.182;2022-07-25T04:31:19;7.13;;;6.43;;
31770;SDS011;18343;50.152;8.182;2022-07-25T04:33:46;12.18;;;7.10;;
31770;SDS011;18343;50.152;8.182;2022-07-25T04:36:13;7.32;;;6.63;;
31770;SDS011;18343;50.152;8.182;2022-07-25T04:38:40;8.45;;;6.70;;
31770;SDS011;18343;50.152;8.182;2022-07-25T04:41:08;11.88;;;6.65;;
31770;SDS011;18343;50.152;8.182;2022-07-25T04:43:35;7.38;;;6.28;;
31770;SDS011;18343;50.152;8.182;2022-07-25T04:46:02;7.35;;;6.65;;
31770;SDS011;18343;50.152;8.182;2022-07-25T04:48:31;9.55;;;7.00;;
31770;SDS011;18343;50.152;8.182;2022-07-25T04:50:59;7.95;;;6.65;;
31770;SDS011;18343;50.152;8.182;2022-07-25T04:53:26;7.65;;;6.88;;
31770;SDS011;18343;50.152;8.182;2022-07-25T04:55:53;13.63;;;7.40;;
31770;SDS011;18343;50.152;8.182;2022-07-25T04:58:20;10.57;;;6.88;;
31770;SDS011;18343;50.152;8.182;2022-07-25T05:00:47;9.27;;;7.05;;
31770;SDS011;18343;50.152;8.182;2022-07-25T05:03:15;11.80;;;7.78;;
31770;SDS011;18343;50.152;8.182;2022-07-25T05:05:44;12.93;;;7.47;;
31770;SDS011;18343;50.152;8.182;2022-07-25T05:08:11;8.52;;;7.28;;
31770;SDS011;18343;50.152;8.182;2022-07-25T05:10:38;9.57;;;7.22;;
31770;SDS011;18343;50.152;8.182;2022-07-25T05:13:05;8.88;;;6.80;;
31770;SDS011;18343;50.152;8.182;2022-07-25T05:15:33;9.25;;;7.10;;
31770;SDS011;18343;50.152;8.182;2022-07-25T05:18:00;14.23;;;7.60;;
31770;SDS011;18343;50.152;8.182;2022-07-25T05:20:27;8.35;;;6.78;;
31770;SDS011;18343;50.152;8.182;2022-07-25T05:22:57;10.25;;;7.43;;
31770;SDS011;18343;50.152;8.182;2022-07-25T05:25:24;12.80;;;7.32;;
31770;SDS011;18343;50.152;8.182;2022-07-25T05:27:51;11.52;;;7.57;;
31770;SDS011;18343;50.152;8.182;2022-07-25T05:30:21;9.60;;;6.90;;
31770;SDS011;18343;50.152;8.182;2022-07-25T05:32:48;11.18;;;7.60;;
31770;SDS011;18343;50.152;8.182;2022-07-25T05:35:15;7.97;;;7.18;;
31770;SDS011;18343;50.152;8.182;2022-07-25T05:37:42;10.63;;;6.75;;
31770;SDS011;18343;50.152;8.182;2022-07-25T05:40:11;8.95;;;6.88;;
31770;SDS011;18343;50.152;8.182;2022-07-25T05:42:38;8.32;;;7.15;;
31770;SDS011;18343;50.152;8.182;2022-07-25T05:45:06;8.68;;;7.65;;
31770;SDS011;18343;50.152;8.182;2022-07-25T05:47:34;8.10;;;7.18;;
31770;SDS011;18343;50.152;8.182;2022-07-25T05:50:01;11.27;;;7.22;;
31770;SDS011;18343;50.152;8.182;2022-07-25T05:52:29;10.15;;;7.60;;
31770;SDS011;18343;50.152;8.182;2022-07-25T05:54:56;9.15;;;8.00;;
31770;SDS011;18343;50.152;8.182;2022-07-25T05:57:24;9.35;;;7.22;;
31770;SDS011;18343;50.152;8.182;2022-07-25T05:59:52;13.35;;;7.53;;
31770;SDS011;18343;50.152;8.182;2022-07-25T06:02:19;10.85;;;6.97;;
31770;SDS011;18343;50.152;8.182;2022-07-25T06:04:46;8.68;;;6.82;;
31770;SDS011;18343;50.152;8.182;2022-07-25T06:07:13;8.20;;;6.57;;
31770;SDS011;18343;50.152;8.182;2022-07-25T06:09:40;8.10;;;6.45;;
31770;SDS011;18343;50.152;8.182;2022-07-25T06:12:07;8.20;;;7.05;;
31770;SDS011;18343;50.152;8.182;2022-07-25T06:14:36;15.40;;;8.60;;
31770;SDS011;18343;50.152;8.182;2022-07-25T06:17:03;9.80;;;7.68;;
31770;SDS011;18343;50.152;8.182;2022-07-25T06:19:30;10.05;;;6.82;;
31770;SDS011;18343;50.152;8.182;2022-07-25T06:21:57;11.95;;;8.02;;
31770;SDS011;18343;50.152;8.182;2022-07-25T06:24:24;9.20;;;6.95;;
31770;SDS011;18343;50.152;8.182;2022-07-25T06:26:52;11.75;;;8.15;;
31770;SDS011;18343;50.152;8.182;2022-07-25T06:29:19;8.10;;;7.22;;
31770;SDS011;18343;50.152;8.182;2022-07-25T06:31:47;10.07;;;8.07;;
31770;SDS011;18343;50.152;8.182;2022-07-25T06:34:15;9.38;;;7.32;;
31770;SDS011;18343;50.152;8.182;2022-07-25T06:36:42;8.35;;;7.22;;
31770;SDS011;18343;50.152;8.182;2022-07-25T06:39:09;12.57;;;7.90;;
31770;SDS011;18343;50.152;8.182;2022-07-25T06:41:36;10.18;;;7.57;;
31770;SDS011;18343;50.152;8.182;2022-07-25T06:44:04;10.30;;;7.45;;
31770;SDS011;18343;50.152;8.182;2022-07-25T06:46:31;12.55;;;7.93;;
31770;SDS011;18343;50.152;8.182;2022-07-25T06:48:59;13.70;;;7.93;;
31770;SDS011;18343;50.152;8.182;2022-07-25T06:51:27;9.45;;;8.05;;
31770;SDS011;18343;50.152;8.182;2022-07-25T06:53:54;14.50;;;8.05;;
31770;SDS011;18343;50.152;8.182;2022-07-25T06:56:21;9.27;;;8.02;;
31770;SDS011;18343;50.152;8.182;2022-07-25T06:58:49;10.23;;;8.13;;
31770;SDS011;18343;50.152;8.182;2022-07-25T07:01:17;12.45;;;8.75;;
31770;SDS011;18343;50.152;8.182;2022-07-25T07:03:44;12.70;;;8.60;;
31770;SDS011;18343;50.152;8.182;2022-07-25T07:06:13;10.73;;;8.52;;
31770;SDS011;18343;50.152;8.182;2022-07-25T07:08:40;9.18;;;7.85;;
31770;SDS011;18343;50.152;8.182;2022-07-25T07:11:08;10.10;;;7.68;;
31770;SDS011;18343;50.152;8.182;2022-07-25T07:13:35;13.30;;;7.60;;
31770;SDS011;18343;50.152;8.182;2022-07-25T18:33:10;12.87;;;2.90;;
31770;SDS011;18343;50.152;8.182;2022-07-25T18:35:37;11.38;;;2.60;;
31770;SDS011;18343;50.152;8.182;2022-07-25T18:38:05;18.00;;;3.42;;
31770;SDS011;18343;50.152;8.182;2022-07-25T18:40:33;15.02;;;3.20;;
31770;SDS011;18343;50.152;8.182;2022-07-25T18:43:00;68.35;;;6.05;;
31770;SDS011;18343;50.152;8.182;2022-07-25T18:45:27;26.42;;;4.85;;
31770;SDS011;18343;50.152;8.182;2022-07-25T18:47:54;49.03;;;4.72;;
31770;SDS011;18343;50.152;8.182;2022-07-25T18:50:23;55.60;;;6.50;;
31770;SDS011;18343;50.152;8.182;2022-07-25T18:52:51;24.48;;;4.07;;
31770;SDS011;18343;50.152;8.182;2022-07-25T18:55:18;25.33;;;3.25;;
31770;SDS011;18343;50.152;8.182;2022-07-25T18:57:45;21.63;;;4.10;;
31770;SDS011;18343;50.152;8.182;2022-07-25T19:00:13;18.33;;;2.85;;
31770;SDS011;18343;50.152;8.182;2022-07-25T19:02:40;20.65;;;3.25;;
31770;SDS011;18343;50.152;8.182;2022-07-25T19:05:08;20.60;;;3.05;;
31770;SDS011;18343;50.152;8.182;2022-07-25T19:07:37;13.27;;;2.97;;
31770;SDS011;18343;50.152;8.182;2022-07-25T19:10:05;8.88;;;3.08;;
31770;SDS011;18343;50.152;8.182;2022-07-25T19:12:34;11.82;;;2.55;;
31770;SDS011;18343;50.152;8.182;2022-07-25T19:15:02;7.93;;;2.70;;
31770;SDS011;18343;50.152;8.182;2022-07-25T19:17:31;11.80;;;3.25;;
31770;SDS011;18343;50.152;8.182;2022-07-25T19:19:58;7.45;;;2.60;;
31770;SDS011;18343;50.152;8.182;2022-07-25T19:22:26;10.07;;;2.53;;
31770;SDS011;18343;50.152;8.182;2022-07-25T19:24:55;6.78;;;2.30;;
31770;SDS011;18343;50.152;8.182;2022-07-25T19:27:22;7.85;;;2.63;;
31770;SDS011;18343;50.152;8.182;2022-07-25T19:29:50;5.03;;;2.40;;
31770;SDS011;18343;50.152;8.182;2022-07-25T19:32:18;10.50;;;2.28;;
31770;SDS011;18343;50.152;8.182;2022-07-25T19:34:46;9.68;;;2.50;;
31770;SDS011;18343;50.152;8.182;2022-07-25T19:37:14;12.88;;;2.58;;
31770;SDS011;18343;50.152;8.182;2022-07-25T19:39:41;13.30;;;3.13;;
31770;SDS011;18343;50.152;8.182;2022-07-25T19:42:13;10.80;;;2.83;;
31770;SDS011;18343;50.152;8.182;2022-07-25T19:44:40;11.35;;;2.95;;
31770;SDS011;18343;50.152;8.182;2022-07-25T19:47:07;5.68;;;2.38;;
31770;SDS011;18343;50.152;8.182;2022-07-25T19:49:34;8.32;;;2.45;;
31770;SDS011;18343;50.152;8.182;2022-07-25T19:52:04;8.98;;;3.00;;
31770;SDS011;18343;50.152;8.182;2022-07-25T19:54:32;12.30;;;2.60;;
31770;SDS011;18343;50.152;8.182;2022-07-25T19:56:59;6.20;;;2.45;;
31770;SDS011;18343;50.152;8.182;2022-07-25T19:59:28;16.10;;;2.50;;
31770;SDS011;18343;50.152;8.182;2022-07-25T20:01:55;8.38;;;2.75;;
31770;SDS011;18343;50.152;8.182;2022-07-25T20:04:22;8.05;;;2.63;;
31770;SDS011;18343;50.152;8.182;2022-07-25T20:06:50;6.25;;;2.38;;
31770;SDS011;18343;50.152;8.182;2022-07-25T20:09:17;13.25;;;3.15;;
31770;SDS011;18343;50.152;8.182;2022-07-25T20:11:44;10.60;;;2.50;;
31770;SDS011;18343;50.152;8.182;2022-07-25T20:14:12;8.85;;;2.60;;
31770;SDS011;18343;50.152;8.182;2022-07-25T20:16:42;8.68;;;2.70;;
31770;SDS011;18343;50.152;8.182;2022-07-25T20:19:09;10.52;;;3.03;;
31770;SDS011;18343;50.152;8.182;2022-07-25T20:21:37;11.23;;;2.70;;
31770;SDS011;18343;50.152;8.182;2022-07-25T20:24:05;11.15;;;2.40;;
31770;SDS011;18343;50.152;8.182;2022-07-25T20:26:33;5.97;;;3.00;;
31770;SDS011;18343;50.152;8.182;2022-07-25T20:29:01;7.03;;;2.65;;
31770;SDS011;18343;50.152;8.182;2022-07-25T20:31:29;7.78;;;2.97;;
31770;SDS011;18343;50.152;8.182;2022-07-25T20:33:58;12.32;;;2.60;;
31770;SDS011;18343;50.152;8.182;2022-07-25T20:36:25;14.95;;;2.60;;
31770;SDS011;18343;50.152;8.182;2022-07-25T20:38:52;10.63;;;2.65;;
31770;SDS011;18343;50.152;8.182;2022-07-25T20:41:19;7.28;;;2.63;;
31770;SDS011;18343;50.152;8.182;2022-07-25T20:43:46;10.88;;;3.28;;
31770;SDS011;18343;50.152;8.182;2022-07-25T20:46:14;10.52;;;3.05;;
31770;SDS011;18343;50.152;8.182;2022-07-25T20:48:41;16.83;;;2.80;;
31770;SDS011;18343;50.152;8.182;2022-07-25T20:51:10;8.80;;;2.65;;
31770;SDS011;18343;50.152;8.182;2022-07-25T20:53:38;6.75;;;3.05;;
31770;SDS011;18343;50.152;8.182;2022-07-25T20:56:06;12.20;;;2.85;;
31770;SDS011;18343;50.152;8.182;2022-07-25T20:58:34;9.35;;;2.90;;
31770;SDS011;18343;50.152;8.182;2022-07-25T21:01:01;7.43;;;2.42;;
31770;SDS011;18343;50.152;8.182;2022-07-25T21:03:28;10.02;;;3.15;;
31770;SDS011;18343;50.152;8.182;2022-07-25T21:05:56;8.02;;;2.95;;
31770;SDS011;18343;50.152;8.182;2022-07-25T21:08:26;11.88;;;2.90;;
31770;SDS011;18343;50.152;8.182;2022-07-25T21:10:54;6.53;;;2.80;;
31770;SDS011;18343;50.152;8.182;2022-07-25T21:13:22;13.38;;;3.00;;
31770;SDS011;18343;50.152;8.182;2022-07-25T21:15:50;7.90;;;2.90;;
31770;SDS011;18343;50.152;8.182;2022-07-25T21:18:17;7.57;;;3.00;;
31770;SDS011;18343;50.152;8.182;2022-07-25T21:20:44;12.27;;;3.70;;
31770;SDS011;18343;50.152;8.182;2022-07-25T21:23:12;8.15;;;2.97;;
31770;SDS011;18343;50.152;8.182;2022-07-25T21:25:41;8.02;;;2.92;;
31770;SDS011;18343;50.152;8.182;2022-07-25T21:28:08;9.85;;;3.13;;
31770;SDS011;18343;50.152;8.182;2022-07-25T21:30:35;8.20;;;2.92;;
31770;SDS011;18343;50.152;8.182;2022-07-25T21:33:05;9.90;;;2.95;;
31770;SDS011;18343;50.152;8.182;2022-07-25T21:35:33;8.90;;;2.92;;
31770;SDS011;18343;50.152;8.182;2022-07-25T21:38:00;7.65;;;2.65;;
31770;SDS011;18343;50.152;8.182;2022-07-25T21:40:27;5.90;;;2.83;;
31770;SDS011;18343;50.152;8.182;2022-07-25T21:42:56;7.43;;;2.63;;
31770;SDS011;18343;50.152;8.182;2022-07-25T21:45:23;13.07;;;2.85;;
31770;SDS011;18343;50.152;8.182;2022-07-25T21:47:51;7.68;;;3.00;;
31770;SDS011;18343;50.152;8.182;2022-07-25T21:50:19;4.75;;;2.53;;
31770;SDS011;18343;50.152;8.182;2022-07-25T21:53:04;11.52;;;3.17;;
31770;SDS011;18343;50.152;8.182;2022-07-25T21:55:33;7.28;;;2.63;;
31770;SDS011;18343;50.152;8.182;2022-07-25T21:58:02;9.63;;;2.95;;
31770;SDS011;18343;50.152;8.182;2022-07-25T22:00:29;8.77;;;3.17;;
31770;SDS011;18343;50.152;8.182;2022-07-25T22:02:57;5.93;;;2.80;;
31770;SDS011;18343;50.152;8.182;2022-07-25T22:05:25;10.30;;;3.10;;
31770;SDS011;18343;50.152;8.182;2022-07-25T22:07:53;9.38;;;3.25;;
31770;SDS011;18343;50.152;8.182;2022-07-25T22:10:20;7.55;;;2.53;;
31770;SDS011;18343;50.152;8.182;2022-07-25T22:12:48;6.22;;;2.65;;
31770;SDS011;18343;50.152;8.182;2022-07-25T22:15:18;10.98;;;2.90;;
31770;SDS011;18343;50.152;8.182;2022-07-25T22:17:45;6.07;;;2.75;;
31770;SDS011;18343;50.152;8.182;2022-07-25T22:20:12;5.55;;;2.20;;
31770;SDS011;18343;50.152;8.182;2022-07-25T22:22:39;9.23;;;2.60;;
31770;SDS011;18343;50.152;8.182;2022-07-25T22:25:06;4.50;;;2.33;;
31770;SDS011;18343;50.152;8.182;2022-07-25T22:27:35;8.27;;;2.58;;
31770;SDS011;18343;50.152;8.182;2022-07-25T22:30:02;7.35;;;2.42;;
31770;SDS011;18343;50.152;8.182;2022-07-25T22:32:32;6.63;;;2.63;;
31770;SDS011;18343;50.152;8.182;2022-07-25T22:35:00;6.60;;;2.20;;
31770;SDS011;18343;50.152;8.182;2022-07-25T22:37:27;10.65;;;2.30;;
31770;SDS011;18343;50.152;8.182;2022-07-25T22:39:54;7.68;;;2.78;;
31770;SDS011;18343;50.152;8.182;2022-07-25T22:42:21;9.82;;;2.70;;
31770;SDS011;18343;50.152;8.182;2022-07-25T22:44:48;3.88;;;2.25;;
31770;SDS011;18343;50.152;8.182;2022-07-25T22:47:16;6.53;;;2.22;;
31770;SDS011;18343;50.152;8.182;2022-07-25T22:49:44;9.98;;;2.10;;
31770;SDS011;18343;50.152;8.182;2022-07-25T22:52:12;5.60;;;2.28;;
31770;SDS011;18343;50.152;8.182;2022-07-25T22:54:39;4.38;;;2.40;;
31770;SDS011;18343;50.152;8.182;2022-07-25T22:57:06;5.35;;;2.00;;
31770;SDS011;18343;50.152;8.182;2022-07-25T22:59:33;5.55;;;2.08;;
31770;SDS011;18343;50.152;8.182;2022-07-25T23:02:00;12.98;;;2.13;;
31770;SDS011;18343;50.152;8.182;2022-07-25T23:04:28;7.45;;;2.25;;
31770;SDS011;18343;50.152;8.182;2022-07-25T23:06:56;4.50;;;2.20;;
31770;SDS011;18343;50.152;8.182;2022-07-25T23:09:23;13.02;;;2.70;;
31770;SDS011;18343;50.152;8.182;2022-07-25T23:11:51;7.40;;;2.22;;
31770;SDS011;18343;50.152;8.182;2022-07-25T23:14:18;5.20;;;2.55;;
31770;SDS011;18343;50.152;8.182;2022-07-25T23:16:45;8.90;;;2.40;;
31770;SDS011;18343;50.152;8.182;2022-07-25T23:19:33;13.80;;;2.95;;
31770;SDS011;18343;50.152;8.182;2022-07-25T23:22:01;9.77;;;2.42;;
31770;SDS011;18343;50.152;8.182;2022-07-25T23:24:28;6.35;;;2.15;;
31770;SDS011;18343;50.152;8.182;2022-07-25T23:26:55;7.47;;;2.20;;
31770;SDS011;18343;50.152;8.182;2022-07-25T23:29:22;6.28;;;2.03;;
31770;SDS011;18343;50.152;8.182;2022-07-25T23:31:50;5.72;;;2.17;;
31770;SDS011;18343;50.152;8.182;2022-07-25T23:34:17;4.47;;;1.88;;
31770;SDS011;18343;50.152;8.182;2022-07-25T23:36:44;5.22;;;2.00;;
31770;SDS011;18343;50.152;8.182;2022-07-25T23:39:13;4.72;;;2.08;;
31770;SDS011;18343;50.152;8.182;2022-07-25T23:41:40;5.28;;;2.25;;
31770;SDS011;18343;50.152;8.182;2022-07-25T23:44:07;5.55;;;2.00;;
31770;SDS011;18343;50.152;8.182;2022-07-25T23:46:35;11.45;;;2.05;;
31770;SDS011;18343;50.152;8.182;2022-07-25T23:49:03;3.72;;;1.73;;
31770;SDS011;18343;50.152;8.182;2022-07-25T23:51:31;6.28;;;2.28;;
31770;SDS011;18343;50.152;8.182;2022-07-25T23:53:58;4.75;;;2.13;;
31770;SDS011;18343;50.152;8.182;2022-07-25T23:56:27;5.25;;;2.08;;
31770;SDS011;18343;50.152;8.182;2022-07-25T23:58:54;7.60;;;2.13;;
